sensor_id;sensor_type;location;lat;lon;timestamp;temperature;humidity
21489;DHT22;10906;45.194;5.684;2023-08-17T05:02:12;22.80;79.20
21489;DHT22;10906;45.194;5.684;2023-08-17T05:04:56;22.80;79.80
21489;DHT22;10906;45.194;5.684;2023-08-17T05:07:40;22.80;80.20
21489;DHT22;10906;45.194;5.684;2023-08-17T05:10:25;22.70;85.80
21489;DHT22;10906;45.194;5.684;2023-08-17T05:13:09;22.50;84.30
21489;DHT22;10906;45.194;5.684;2023-08-17T05:15:53;22.40;87.20
21489;DHT22;10906;45.194;5.684;2023-08-17T05:18:37;22.20;85.10
21489;DHT22;10906;45.194;5.684;2023-08-17T05:21:21;22.30;84.10
21489;DHT22;10906;45.194;5.684;2023-08-17T05:24:05;22.40;84.20
21489;DHT22;10906;45.194;5.684;2023-08-17T05:26:49;22.50;83.80
21489;DHT22;10906;45.194;5.684;2023-08-17T05:29:34;22.40;87.40
21489;DHT22;10906;45.194;5.684;2023-08-17T05:32:18;22.30;87.20
21489;DHT22;10906;45.194;5.684;2023-08-17T05:35:02;22.30;85.00
21489;DHT22;10906;45.194;5.684;2023-08-17T05:37:47;22.30;86.30
21489;DHT22;10906;45.194;5.684;2023-08-17T05:40:31;22.40;86.10
21489;DHT22;10906;45.194;5.684;2023-08-17T05:43:16;22.40;86.30
21489;DHT22;10906;45.194;5.684;2023-08-17T05:46:00;22.30;86.40
21489;DHT22;10906;45.194;5.684;2023-08-17T05:48:44;22.40;85.20
21489;DHT22;10906;45.194;5.684;2023-08-17T05:51:28;22.40;84.30
21489;DHT22;10906;45.194;5.684;2023-08-17T05:54:12;22.50;86.00
21489;DHT22;10906;45.194;5.684;2023-08-17T05:56:58;22.50;84.50
21489;DHT22;10906;45.194;5.684;2023-08-17T05:59:42;22.50;84.60
21489;DHT22;10906;45.194;5.684;2023-08-17T06:02:27;22.50;86.00
21489;DHT22;10906;45.194;5.684;2023-08-17T06:05:11;22.50;86.10
21489;DHT22;10906;45.194;5.684;2023-08-17T06:07:58;22.50;84.30
21489;DHT22;10906;45.194;5.684;2023-08-17T06:10:43;22.50;84.60
21489;DHT22;10906;45.194;5.684;2023-08-17T06:13:27;22.50;83.20
21489;DHT22;10906;45.194;5.684;2023-08-17T06:16:11;22.50;84.30
21489;DHT22;10906;45.194;5.684;2023-08-17T06:18:55;22.60;87.30
21489;DHT22;10906;45.194;5.684;2023-08-17T06:21:40;22.60;87.60
21489;DHT22;10906;45.194;5.684;2023-08-17T06:24:27;20.10;85.00
21489;DHT22;10906;45.194;5.684;2023-08-17T06:27:15;20.70;83.40
21489;DHT22;10906;45.194;5.684;2023-08-17T06:29:59;22.60;86.50
21489;DHT22;10906;45.194;5.684;2023-08-17T06:32:51;22.60;91.60
21489;DHT22;10906;45.194;5.684;2023-08-17T06:35:35;22.70;89.90
21489;DHT22;10906;45.194;5.684;2023-08-17T06:38:20;22.80;90.20
21489;DHT22;10906;45.194;5.684;2023-08-17T06:41:07;23.00;90.10
21489;DHT22;10906;45.194;5.684;2023-08-17T06:43:51;24.90;90.10
21489;DHT22;10906;45.194;5.684;2023-08-17T06:46:39;23.20;91.90
21489;DHT22;10906;45.194;5.684;2023-08-17T06:49:23;20.50;84.90
21489;DHT22;10906;45.194;5.684;2023-08-17T06:52:13;23.00;91.60
21489;DHT22;10906;45.194;5.684;2023-08-17T06:55:01;21.40;88.80
21489;DHT22;10906;45.194;5.684;2023-08-17T06:57:46;23.40;88.00
21489;DHT22;10906;45.194;5.684;2023-08-17T07:00:34;23.30;85.00
21489;DHT22;10906;45.194;5.684;2023-08-17T07:03:19;23.50;84.60
21489;DHT22;10906;45.194;5.684;2023-08-17T07:06:04;23.00;87.60
21489;DHT22;10906;45.194;5.684;2023-08-17T07:08:58;23.10;90.00
21489;DHT22;10906;45.194;5.684;2023-08-17T07:11:49;24.00;85.20
21489;DHT22;10906;45.194;5.684;2023-08-17T07:14:33;23.20;84.70
21489;DHT22;10906;45.194;5.684;2023-08-17T07:17:17;23.70;83.10
21489;DHT22;10906;45.194;5.684;2023-08-17T07:20:02;23.60;83.50
21489;DHT22;10906;45.194;5.684;2023-08-17T07:22:46;23.50;80.90
21489;DHT22;10906;45.194;5.684;2023-08-17T07:25:39;23.60;82.30
21489;DHT22;10906;45.194;5.684;2023-08-17T07:28:23;23.60;82.50
21489;DHT22;10906;45.194;5.684;2023-08-17T07:31:07;23.40;86.20
21489;DHT22;10906;45.194;5.684;2023-08-17T07:33:52;23.50;84.40
21489;DHT22;10906;45.194;5.684;2023-08-17T07:36:36;23.80;86.00
21489;DHT22;10906;45.194;5.684;2023-08-17T07:39:24;24.10;86.70
21489;DHT22;10906;45.194;5.684;2023-08-17T07:42:09;23.90;80.50
21489;DHT22;10906;45.194;5.684;2023-08-17T07:44:53;23.80;85.40
21489;DHT22;10906;45.194;5.684;2023-08-17T07:47:37;24.20;84.90
21489;DHT22;10906;45.194;5.684;2023-08-17T07:50:21;24.30;82.00
21489;DHT22;10906;45.194;5.684;2023-08-17T07:53:06;24.40;79.60
21489;DHT22;10906;45.194;5.684;2023-08-17T07:55:50;24.60;80.60
21489;DHT22;10906;45.194;5.684;2023-08-17T07:58:34;24.80;81.10
21489;DHT22;10906;45.194;5.684;2023-08-17T08:01:18;25.80;82.20
21489;DHT22;10906;45.194;5.684;2023-08-17T08:04:03;28.30;81.60
21489;DHT22;10906;45.194;5.684;2023-08-17T08:06:47;25.30;77.00
21489;DHT22;10906;45.194;5.684;2023-08-17T08:09:31;25.90;83.00
21489;DHT22;10906;45.194;5.684;2023-08-17T08:12:16;25.50;76.40
21489;DHT22;10906;45.194;5.684;2023-08-17T08:15:03;25.70;79.90
21489;DHT22;10906;45.194;5.684;2023-08-17T08:17:48;26.00;71.90
21489;DHT22;10906;45.194;5.684;2023-08-17T08:20:32;25.90;75.60
21489;DHT22;10906;45.194;5.684;2023-08-17T08:23:19;26.10;76.60
21489;DHT22;10906;45.194;5.684;2023-08-17T08:26:13;26.30;69.80
21489;DHT22;10906;45.194;5.684;2023-08-17T08:29:00;24.70;70.00
21489;DHT22;10906;45.194;5.684;2023-08-17T08:31:47;26.90;70.90
21489;DHT22;10906;45.194;5.684;2023-08-17T08:34:34;25.80;67.00
21489;DHT22;10906;45.194;5.684;2023-08-17T08:37:18;27.00;70.10
21489;DHT22;10906;45.194;5.684;2023-08-17T08:40:12;27.10;72.30
21489;DHT22;10906;45.194;5.684;2023-08-17T08:42:59;28.00;72.30
21489;DHT22;10906;45.194;5.684;2023-08-17T08:45:46;27.60;69.60
21489;DHT22;10906;45.194;5.684;2023-08-17T08:48:31;25.90;67.30
21489;DHT22;10906;45.194;5.684;2023-08-17T08:51:16;27.50;67.20
21489;DHT22;10906;45.194;5.684;2023-08-17T08:54:01;27.10;68.50
21489;DHT22;10906;45.194;5.684;2023-08-17T08:56:47;27.00;71.60
21489;DHT22;10906;45.194;5.684;2023-08-17T08:59:36;27.10;70.70
21489;DHT22;10906;45.194;5.684;2023-08-17T09:02:31;27.10;71.00
21489;DHT22;10906;45.194;5.684;2023-08-17T09:05:15;24.70;69.00
21489;DHT22;10906;45.194;5.684;2023-08-17T09:08:00;27.70;69.10
21489;DHT22;10906;45.194;5.684;2023-08-17T09:10:45;28.20;68.60
21489;DHT22;10906;45.194;5.684;2023-08-17T09:13:30;28.20;66.40
21489;DHT22;10906;45.194;5.684;2023-08-17T09:16:17;28.60;68.70
21489;DHT22;10906;45.194;5.684;2023-08-17T09:19:02;28.90;62.40
21489;DHT22;10906;45.194;5.684;2023-08-17T09:21:46;29.20;67.40
21489;DHT22;10906;45.194;5.684;2023-08-17T09:24:36;29.30;68.40
21489;DHT22;10906;45.194;5.684;2023-08-17T09:27:21;29.80;65.60
21489;DHT22;10906;45.194;5.684;2023-08-17T09:30:09;29.80;67.30
21489;DHT22;10906;45.194;5.684;2023-08-17T09:32:53;29.90;65.60
21489;DHT22;10906;45.194;5.684;2023-08-17T09:35:38;30.40;65.70
21489;DHT22;10906;45.194;5.684;2023-08-17T09:38:34;30.10;63.10
21489;DHT22;10906;45.194;5.684;2023-08-17T09:41:18;29.40;62.50
21489;DHT22;10906;45.194;5.684;2023-08-17T09:44:03;27.70;60.10
21489;DHT22;10906;45.194;5.684;2023-08-17T09:46:47;30.30;63.40
21489;DHT22;10906;45.194;5.684;2023-08-17T09:49:31;30.40;64.80
21489;DHT22;10906;45.194;5.684;2023-08-17T09:52:16;30.70;62.50
21489;DHT22;10906;45.194;5.684;2023-08-17T09:55:03;30.70;65.00
21489;DHT22;10906;45.194;5.684;2023-08-17T09:57:49;32.40;63.90
21489;DHT22;10906;45.194;5.684;2023-08-17T10:00:34;31.00;60.60
21489;DHT22;10906;45.194;5.684;2023-08-17T10:03:22;31.00;60.20
21489;DHT22;10906;45.194;5.684;2023-08-17T10:06:20;31.00;58.70
21489;DHT22;10906;45.194;5.684;2023-08-17T10:09:06;30.40;56.80
21489;DHT22;10906;45.194;5.684;2023-08-17T10:11:54;31.30;59.00
21489;DHT22;10906;45.194;5.684;2023-08-17T10:14:45;31.80;57.50
21489;DHT22;10906;45.194;5.684;2023-08-17T10:18:15;32.10;56.60
21489;DHT22;10906;45.194;5.684;2023-08-17T10:20:38;31.80;55.70
21489;DHT22;10906;45.194;5.684;2023-08-17T10:23:34;31.80;57.50
21489;DHT22;10906;45.194;5.684;2023-08-17T10:26:19;32.20;57.60
21489;DHT22;10906;45.194;5.684;2023-08-17T10:29:03;31.60;57.70
21489;DHT22;10906;45.194;5.684;2023-08-17T10:31:49;32.80;57.30
21489;DHT22;10906;45.194;5.684;2023-08-17T10:34:34;32.60;57.50
21489;DHT22;10906;45.194;5.684;2023-08-17T10:37:19;32.70;55.50
21489;DHT22;10906;45.194;5.684;2023-08-17T10:40:04;32.70;55.60
21489;DHT22;10906;45.194;5.684;2023-08-17T10:42:49;33.10;57.80
21489;DHT22;10906;45.194;5.684;2023-08-17T10:45:37;32.90;53.20
21489;DHT22;10906;45.194;5.684;2023-08-17T10:48:26;33.10;54.30
21489;DHT22;10906;45.194;5.684;2023-08-17T10:51:11;33.40;52.70
21489;DHT22;10906;45.194;5.684;2023-08-17T10:54:01;33.40;53.40
21489;DHT22;10906;45.194;5.684;2023-08-17T10:56:46;32.10;52.10
21489;DHT22;10906;45.194;5.684;2023-08-17T10:59:31;33.90;54.60
21489;DHT22;10906;45.194;5.684;2023-08-17T11:02:15;33.90;53.10
21489;DHT22;10906;45.194;5.684;2023-08-17T11:05:02;33.90;53.40
21489;DHT22;10906;45.194;5.684;2023-08-17T11:07:48;33.90;52.90
21489;DHT22;10906;45.194;5.684;2023-08-17T11:10:32;33.50;49.50
21489;DHT22;10906;45.194;5.684;2023-08-17T11:13:17;34.00;51.10
21489;DHT22;10906;45.194;5.684;2023-08-17T11:16:02;34.00;48.40
21489;DHT22;10906;45.194;5.684;2023-08-17T11:18:46;34.00;48.00
21489;DHT22;10906;45.194;5.684;2023-08-17T11:21:31;34.10;46.70
21489;DHT22;10906;45.194;5.684;2023-08-17T11:24:15;35.20;49.60
21489;DHT22;10906;45.194;5.684;2023-08-17T11:26:59;33.80;46.00
21489;DHT22;10906;45.194;5.684;2023-08-17T11:29:44;33.60;45.70
21489;DHT22;10906;45.194;5.684;2023-08-17T11:32:28;33.50;49.90
21489;DHT22;10906;45.194;5.684;2023-08-17T11:35:13;33.40;47.60
21489;DHT22;10906;45.194;5.684;2023-08-17T11:37:57;33.60;48.30
21489;DHT22;10906;45.194;5.684;2023-08-17T11:40:41;33.10;50.00
21489;DHT22;10906;45.194;5.684;2023-08-17T11:43:27;33.30;48.20
21489;DHT22;10906;45.194;5.684;2023-08-17T11:46:11;33.40;49.80
21489;DHT22;10906;45.194;5.684;2023-08-17T11:48:58;33.80;51.60
21489;DHT22;10906;45.194;5.684;2023-08-17T11:51:42;33.50;50.30
21489;DHT22;10906;45.194;5.684;2023-08-17T11:54:26;33.50;49.20
21489;DHT22;10906;45.194;5.684;2023-08-17T11:57:10;33.50;48.60
21489;DHT22;10906;45.194;5.684;2023-08-17T11:59:55;33.30;51.70
21489;DHT22;10906;45.194;5.684;2023-08-17T12:02:40;33.40;50.80
21489;DHT22;10906;45.194;5.684;2023-08-17T12:05:27;33.20;48.00
21489;DHT22;10906;45.194;5.684;2023-08-17T12:08:13;34.00;50.70
21489;DHT22;10906;45.194;5.684;2023-08-17T12:10:58;34.20;49.00
21489;DHT22;10906;45.194;5.684;2023-08-17T12:13:42;34.30;49.60
21489;DHT22;10906;45.194;5.684;2023-08-17T12:16:26;35.00;49.90
21489;DHT22;10906;45.194;5.684;2023-08-17T12:19:11;33.40;50.00
21489;DHT22;10906;45.194;5.684;2023-08-17T12:21:56;33.30;49.80
21489;DHT22;10906;45.194;5.684;2023-08-17T12:24:40;33.10;50.90
21489;DHT22;10906;45.194;5.684;2023-08-17T12:27:24;33.80;53.50
21489;DHT22;10906;45.194;5.684;2023-08-17T12:30:13;32.80;51.60
21489;DHT22;10906;45.194;5.684;2023-08-17T12:32:58;32.90;48.60
21489;DHT22;10906;45.194;5.684;2023-08-17T12:35:42;32.90;48.60
21489;DHT22;10906;45.194;5.684;2023-08-17T12:38:27;33.30;50.20
21489;DHT22;10906;45.194;5.684;2023-08-17T12:41:11;33.30;51.70
21489;DHT22;10906;45.194;5.684;2023-08-17T12:43:55;33.30;48.30
21489;DHT22;10906;45.194;5.684;2023-08-17T12:46:43;33.10;48.30
21489;DHT22;10906;45.194;5.684;2023-08-17T12:49:27;33.40;47.80
21489;DHT22;10906;45.194;5.684;2023-08-17T12:52:11;33.50;48.90
21489;DHT22;10906;45.194;5.684;2023-08-17T12:54:55;33.30;47.20
21489;DHT22;10906;45.194;5.684;2023-08-17T12:57:39;33.40;47.00
21489;DHT22;10906;45.194;5.684;2023-08-17T13:00:24;33.20;46.70
21489;DHT22;10906;45.194;5.684;2023-08-17T13:03:08;33.20;43.60
21489;DHT22;10906;45.194;5.684;2023-08-17T13:05:52;33.30;44.10
21489;DHT22;10906;45.194;5.684;2023-08-17T13:08:36;33.20;44.50
21489;DHT22;10906;45.194;5.684;2023-08-17T13:11:20;33.20;44.50
21489;DHT22;10906;45.194;5.684;2023-08-17T13:14:04;33.10;45.50
21489;DHT22;10906;45.194;5.684;2023-08-17T13:16:49;30.50;44.30
21489;DHT22;10906;45.194;5.684;2023-08-17T13:19:33;33.30;45.80
21489;DHT22;10906;45.194;5.684;2023-08-17T13:22:17;33.30;45.20
21489;DHT22;10906;45.194;5.684;2023-08-17T13:25:02;33.60;45.20
21489;DHT22;10906;45.194;5.684;2023-08-17T13:27:46;33.50;43.40
21489;DHT22;10906;45.194;5.684;2023-08-17T13:30:31;33.50;44.40
21489;DHT22;10906;45.194;5.684;2023-08-17T13:33:15;34.10;42.00
21489;DHT22;10906;45.194;5.684;2023-08-17T13:36:01;34.30;41.80
21489;DHT22;10906;45.194;5.684;2023-08-17T13:38:45;34.50;42.20
21489;DHT22;10906;45.194;5.684;2023-08-17T13:41:29;37.10;44.80
21489;DHT22;10906;45.194;5.684;2023-08-17T13:44:14;35.30;42.50
21489;DHT22;10906;45.194;5.684;2023-08-17T13:46:58;35.30;40.90
21489;DHT22;10906;45.194;5.684;2023-08-17T13:49:42;35.30;40.90
21489;DHT22;10906;45.194;5.684;2023-08-17T13:52:26;35.20;41.30
21489;DHT22;10906;45.194;5.684;2023-08-17T13:55:10;35.20;44.20
21489;DHT22;10906;45.194;5.684;2023-08-17T13:57:55;35.20;40.70
21489;DHT22;10906;45.194;5.684;2023-08-17T14:00:42;35.20;40.70
21489;DHT22;10906;45.194;5.684;2023-08-17T14:03:26;35.20;41.80
21489;DHT22;10906;45.194;5.684;2023-08-17T14:06:10;37.10;43.00
21489;DHT22;10906;45.194;5.684;2023-08-17T14:08:54;35.40;43.30
21489;DHT22;10906;45.194;5.684;2023-08-17T14:11:39;35.30;42.30
21489;DHT22;10906;45.194;5.684;2023-08-17T14:14:23;35.50;42.50
21489;DHT22;10906;45.194;5.684;2023-08-17T14:17:07;36.00;43.20
21489;DHT22;10906;45.194;5.684;2023-08-17T14:19:51;36.50;42.30
21489;DHT22;10906;45.194;5.684;2023-08-17T14:22:36;36.60;40.40
21489;DHT22;10906;45.194;5.684;2023-08-17T14:25:20;36.90;41.70
21489;DHT22;10906;45.194;5.684;2023-08-17T14:28:05;36.50;39.90
21489;DHT22;10906;45.194;5.684;2023-08-17T14:30:51;33.60;41.10
21489;DHT22;10906;45.194;5.684;2023-08-17T14:33:35;37.80;42.90
21489;DHT22;10906;45.194;5.684;2023-08-17T14:36:20;36.80;41.30
21489;DHT22;10906;45.194;5.684;2023-08-17T14:39:04;37.00;40.80
21489;DHT22;10906;45.194;5.684;2023-08-17T14:41:48;37.20;40.50
21489;DHT22;10906;45.194;5.684;2023-08-17T14:44:32;37.10;41.00
21489;DHT22;10906;45.194;5.684;2023-08-17T14:47:16;37.30;41.00
21489;DHT22;10906;45.194;5.684;2023-08-17T14:50:00;37.30;40.50
21489;DHT22;10906;45.194;5.684;2023-08-17T14:52:45;37.40;41.10
21489;DHT22;10906;45.194;5.684;2023-08-17T14:55:29;37.40;41.90
21489;DHT22;10906;45.194;5.684;2023-08-17T14:58:13;38.00;40.80
21489;DHT22;10906;45.194;5.684;2023-08-17T15:00:59;38.90;41.40
21489;DHT22;10906;45.194;5.684;2023-08-17T15:03:43;39.70;41.70
21489;DHT22;10906;45.194;5.684;2023-08-17T15:06:27;40.00;39.90
21489;DHT22;10906;45.194;5.684;2023-08-17T15:09:11;39.90;38.60
21489;DHT22;10906;45.194;5.684;2023-08-17T15:11:56;41.00;38.00
21489;DHT22;10906;45.194;5.684;2023-08-17T15:14:40;41.80;39.60
21489;DHT22;10906;45.194;5.684;2023-08-17T15:17:24;42.50;36.10
21489;DHT22;10906;45.194;5.684;2023-08-17T15:20:08;43.10;36.30
21489;DHT22;10906;45.194;5.684;2023-08-17T15:22:52;42.60;35.50
21489;DHT22;10906;45.194;5.684;2023-08-17T15:25:37;42.80;35.70
21489;DHT22;10906;45.194;5.684;2023-08-17T15:28:21;42.40;35.00
21489;DHT22;10906;45.194;5.684;2023-08-17T15:31:05;42.10;36.40
21489;DHT22;10906;45.194;5.684;2023-08-17T15:33:49;42.00;35.00
21489;DHT22;10906;45.194;5.684;2023-08-17T15:36:33;41.60;36.10
21489;DHT22;10906;45.194;5.684;2023-08-17T15:39:18;41.60;36.60
21489;DHT22;10906;45.194;5.684;2023-08-17T15:42:02;41.60;35.60
21489;DHT22;10906;45.194;5.684;2023-08-17T15:44:46;41.70;36.50
21489;DHT22;10906;45.194;5.684;2023-08-17T15:47:30;40.80;35.30
21489;DHT22;10906;45.194;5.684;2023-08-17T15:50:15;40.50;36.40
21489;DHT22;10906;45.194;5.684;2023-08-17T15:52:59;40.10;35.40
21489;DHT22;10906;45.194;5.684;2023-08-17T15:55:43;40.00;37.50
21489;DHT22;10906;45.194;5.684;2023-08-17T15:58:27;39.80;36.30
21489;DHT22;10906;45.194;5.684;2023-08-17T16:01:12;39.10;37.60
21489;DHT22;10906;45.194;5.684;2023-08-17T16:03:56;38.60;37.40
21489;DHT22;10906;45.194;5.684;2023-08-17T16:06:40;38.30;38.70
21489;DHT22;10906;45.194;5.684;2023-08-17T16:09:27;38.30;38.50
21489;DHT22;10906;45.194;5.684;2023-08-17T16:12:12;38.30;38.30
21489;DHT22;10906;45.194;5.684;2023-08-17T16:14:56;36.70;36.40
21489;DHT22;10906;45.194;5.684;2023-08-17T16:17:41;37.70;39.00
21489;DHT22;10906;45.194;5.684;2023-08-17T16:20:25;37.50;38.80
21489;DHT22;10906;45.194;5.684;2023-08-17T16:23:09;37.70;39.40
21489;DHT22;10906;45.194;5.684;2023-08-17T16:25:54;37.80;37.10
21489;DHT22;10906;45.194;5.684;2023-08-17T16:28:38;37.50;37.20
21489;DHT22;10906;45.194;5.684;2023-08-17T16:31:22;37.60;39.30
21489;DHT22;10906;45.194;5.684;2023-08-17T16:34:06;37.50;39.70
21489;DHT22;10906;45.194;5.684;2023-08-17T16:36:51;37.50;40.30
21489;DHT22;10906;45.194;5.684;2023-08-17T16:39:35;37.50;38.80
21489;DHT22;10906;45.194;5.684;2023-08-17T16:42:19;37.50;39.20
21489;DHT22;10906;45.194;5.684;2023-08-17T16:45:03;37.40;39.10
21489;DHT22;10906;45.194;5.684;2023-08-17T16:47:47;37.20;37.60
21489;DHT22;10906;45.194;5.684;2023-08-17T16:50:32;36.90;38.90
21489;DHT22;10906;45.194;5.684;2023-08-17T16:53:16;36.90;38.80
21489;DHT22;10906;45.194;5.684;2023-08-17T16:56:00;37.20;40.40
21489;DHT22;10906;45.194;5.684;2023-08-17T16:58:45;36.80;39.10
21489;DHT22;10906;45.194;5.684;2023-08-17T17:01:29;36.10;40.50
21489;DHT22;10906;45.194;5.684;2023-08-17T17:04:14;35.70;41.60
21489;DHT22;10906;45.194;5.684;2023-08-17T17:06:58;34.60;41.50
21489;DHT22;10906;45.194;5.684;2023-08-17T17:09:42;34.70;42.20
21489;DHT22;10906;45.194;5.684;2023-08-17T17:12:28;34.40;42.50
21489;DHT22;10906;45.194;5.684;2023-08-17T17:15:12;34.20;42.60
21489;DHT22;10906;45.194;5.684;2023-08-17T17:17:57;34.20;42.50
21489;DHT22;10906;45.194;5.684;2023-08-17T17:20:42;33.80;43.90
21489;DHT22;10906;45.194;5.684;2023-08-17T17:23:27;33.90;43.90
21489;DHT22;10906;45.194;5.684;2023-08-17T17:26:11;33.50;43.70
21489;DHT22;10906;45.194;5.684;2023-08-17T17:28:55;33.40;43.40
21489;DHT22;10906;45.194;5.684;2023-08-17T17:31:39;33.30;45.10
21489;DHT22;10906;45.194;5.684;2023-08-17T17:34:24;33.20;46.00
21489;DHT22;10906;45.194;5.684;2023-08-17T17:37:08;32.40;44.20
21489;DHT22;10906;45.194;5.684;2023-08-17T17:39:52;33.10;44.70
21489;DHT22;10906;45.194;5.684;2023-08-17T17:42:36;33.00;44.30
21489;DHT22;10906;45.194;5.684;2023-08-17T17:45:20;32.90;45.90
21489;DHT22;10906;45.194;5.684;2023-08-17T17:48:05;32.80;46.90
21489;DHT22;10906;45.194;5.684;2023-08-17T17:50:49;32.70;45.60
21489;DHT22;10906;45.194;5.684;2023-08-17T17:53:34;32.80;45.70
21489;DHT22;10906;45.194;5.684;2023-08-17T17:56:18;30.30;45.60
21489;DHT22;10906;45.194;5.684;2023-08-17T17:59:02;32.50;47.40
21489;DHT22;10906;45.194;5.684;2023-08-17T18:01:47;32.40;45.70
21489;DHT22;10906;45.194;5.684;2023-08-17T18:04:31;32.20;46.10
21489;DHT22;10906;45.194;5.684;2023-08-17T18:07:17;32.20;48.00
21489;DHT22;10906;45.194;5.684;2023-08-17T18:10:02;32.80;47.30
21489;DHT22;10906;45.194;5.684;2023-08-17T18:12:47;32.00;46.40
21489;DHT22;10906;45.194;5.684;2023-08-17T18:15:35;32.10;47.30
21489;DHT22;10906;45.194;5.684;2023-08-17T18:18:19;31.70;44.70
21489;DHT22;10906;45.194;5.684;2023-08-17T18:21:04;31.70;46.30
21489;DHT22;10906;45.194;5.684;2023-08-17T18:23:48;32.00;45.50
21489;DHT22;10906;45.194;5.684;2023-08-17T18:26:33;31.80;45.90
21489;DHT22;10906;45.194;5.684;2023-08-17T18:29:17;31.80;48.50
21489;DHT22;10906;45.194;5.684;2023-08-17T18:32:01;32.00;47.80
21489;DHT22;10906;45.194;5.684;2023-08-17T18:34:45;31.60;47.60
21489;DHT22;10906;45.194;5.684;2023-08-17T18:37:30;31.60;48.50
21489;DHT22;10906;45.194;5.684;2023-08-17T18:40:14;31.50;47.50
21489;DHT22;10906;45.194;5.684;2023-08-17T18:42:58;31.50;48.70
21489;DHT22;10906;45.194;5.684;2023-08-17T18:45:42;30.30;47.50
21489;DHT22;10906;45.194;5.684;2023-08-17T18:48:26;31.40;48.40
21489;DHT22;10906;45.194;5.684;2023-08-17T18:51:10;31.40;48.10
21489;DHT22;10906;45.194;5.684;2023-08-17T18:53:55;31.40;49.60
21489;DHT22;10906;45.194;5.684;2023-08-17T18:56:39;29.10;46.10
21489;DHT22;10906;45.194;5.684;2023-08-17T18:59:23;31.30;47.80
21489;DHT22;10906;45.194;5.684;2023-08-17T19:02:08;31.30;47.70
21489;DHT22;10906;45.194;5.684;2023-08-17T19:04:52;31.50;49.60
21489;DHT22;10906;45.194;5.684;2023-08-17T19:07:36;31.40;50.00
21489;DHT22;10906;45.194;5.684;2023-08-17T19:10:20;30.90;48.40
21489;DHT22;10906;45.194;5.684;2023-08-17T19:13:04;30.90;47.10
21489;DHT22;10906;45.194;5.684;2023-08-17T19:15:48;30.80;47.50
21489;DHT22;10906;45.194;5.684;2023-08-17T19:18:32;31.10;49.00
21489;DHT22;10906;45.194;5.684;2023-08-17T19:21:17;30.90;46.10
21489;DHT22;10906;45.194;5.684;2023-08-17T19:24:01;30.90;46.60
21489;DHT22;10906;45.194;5.684;2023-08-17T19:26:45;31.00;47.70
21489;DHT22;10906;45.194;5.684;2023-08-17T19:29:29;30.90;47.20
21489;DHT22;10906;45.194;5.684;2023-08-17T19:32:14;30.80;46.80
21489;DHT22;10906;45.194;5.684;2023-08-17T19:34:58;30.80;47.30
21489;DHT22;10906;45.194;5.684;2023-08-17T19:37:42;30.70;46.50
21489;DHT22;10906;45.194;5.684;2023-08-17T19:40:26;30.70;48.40
21489;DHT22;10906;45.194;5.684;2023-08-17T19:43:11;30.50;48.10
21489;DHT22;10906;45.194;5.684;2023-08-17T19:45:56;30.40;48.60
21489;DHT22;10906;45.194;5.684;2023-08-17T19:48:40;30.30;48.10
21489;DHT22;10906;45.194;5.684;2023-08-17T19:51:24;30.20;48.30
21489;DHT22;10906;45.194;5.684;2023-08-17T19:54:09;30.10;48.30
21489;DHT22;10906;45.194;5.684;2023-08-17T19:56:53;30.10;49.00
21489;DHT22;10906;45.194;5.684;2023-08-17T19:59:39;29.90;49.10
21489;DHT22;10906;45.194;5.684;2023-08-17T20:02:24;29.80;48.80
21489;DHT22;10906;45.194;5.684;2023-08-17T20:05:08;29.80;49.40
21489;DHT22;10906;45.194;5.684;2023-08-17T20:07:52;29.80;50.10
21489;DHT22;10906;45.194;5.684;2023-08-17T20:10:36;29.70;49.80
21489;DHT22;10906;45.194;5.684;2023-08-17T20:13:21;29.50;50.10
21489;DHT22;10906;45.194;5.684;2023-08-17T20:16:05;29.40;50.20
21489;DHT22;10906;45.194;5.684;2023-08-17T20:18:49;29.30;50.80
21489;DHT22;10906;45.194;5.684;2023-08-17T20:21:33;29.30;51.30
21489;DHT22;10906;45.194;5.684;2023-08-17T20:24:18;29.20;51.50
21489;DHT22;10906;45.194;5.684;2023-08-17T20:27:02;29.10;50.90
21489;DHT22;10906;45.194;5.684;2023-08-17T20:29:46;29.00;51.00
21489;DHT22;10906;45.194;5.684;2023-08-17T20:32:30;28.80;51.50
21489;DHT22;10906;45.194;5.684;2023-08-17T20:35:14;28.70;52.30
21489;DHT22;10906;45.194;5.684;2023-08-17T20:37:58;28.70;52.10
21489;DHT22;10906;45.194;5.684;2023-08-17T20:40:42;28.60;52.30
21489;DHT22;10906;45.194;5.684;2023-08-17T20:43:27;28.50;52.60
21489;DHT22;10906;45.194;5.684;2023-08-17T20:46:11;28.50;53.00
21489;DHT22;10906;45.194;5.684;2023-08-17T20:48:55;28.40;53.60
21489;DHT22;10906;45.194;5.684;2023-08-17T20:51:40;28.20;53.60
21489;DHT22;10906;45.194;5.684;2023-08-17T20:54:25;28.20;52.90
21489;DHT22;10906;45.194;5.684;2023-08-17T20:57:09;28.20;53.70
21489;DHT22;10906;45.194;5.684;2023-08-17T20:59:53;28.20;53.50
21489;DHT22;10906;45.194;5.684;2023-08-17T21:02:37;28.10;53.60
21489;DHT22;10906;45.194;5.684;2023-08-17T21:05:22;28.00;54.10
21489;DHT22;10906;45.194;5.684;2023-08-17T21:08:06;27.90;54.20
21489;DHT22;10906;45.194;5.684;2023-08-17T21:10:50;27.80;54.30
21489;DHT22;10906;45.194;5.684;2023-08-17T21:13:34;27.80;54.40
21489;DHT22;10906;45.194;5.684;2023-08-17T21:16:20;27.70;55.20
21489;DHT22;10906;45.194;5.684;2023-08-17T21:19:04;27.60;55.00
21489;DHT22;10906;45.194;5.684;2023-08-17T21:21:48;27.50;55.30
21489;DHT22;10906;45.194;5.684;2023-08-17T21:24:32;27.50;55.30
21489;DHT22;10906;45.194;5.684;2023-08-17T21:27:17;28.60;56.30
21489;DHT22;10906;45.194;5.684;2023-08-17T21:30:01;27.20;55.80
21489;DHT22;10906;45.194;5.684;2023-08-17T21:32:47;27.10;55.30
21489;DHT22;10906;45.194;5.684;2023-08-17T21:35:32;27.00;55.80
21489;DHT22;10906;45.194;5.684;2023-08-17T21:38:16;26.90;56.10
21489;DHT22;10906;45.194;5.684;2023-08-17T21:41:04;26.90;55.70
21489;DHT22;10906;45.194;5.684;2023-08-17T21:43:48;26.90;55.70
21489;DHT22;10906;45.194;5.684;2023-08-17T21:46:32;26.80;56.10
21489;DHT22;10906;45.194;5.684;2023-08-17T21:49:16;26.80;56.70
21489;DHT22;10906;45.194;5.684;2023-08-17T21:52:01;26.70;56.60
21489;DHT22;10906;45.194;5.684;2023-08-17T21:54:47;26.70;56.60
21489;DHT22;10906;45.194;5.684;2023-08-17T21:57:31;26.70;57.10
